Black River (Missouri), Poplar Bluff (07063000)

StateMissouriLatestGood (1510 cfs)
RiverBlack RiverRatingObservedEstimated
Updated2020-08-06 9:15 (57 minutes ago)Flood - The river is flooding. Obstacles can be treacherous or deadly. The river should be avoided at this stage for casual trips and definitely for the inexperienced. Trips should be attempted only with protective gear and equipment.Flood(none)4089
Discharge1510 cfs (median: 547 cfs)High - The river is high and potentially dangerous, especially for the young and / or inexperienced. Normal stream obstacles are sometimes difficult to navigate. Extended distances can be attempted, but canoe travel may not be advisable.High(none)1897
Height3.41 feetGood - Conditions are ideal for a canoe or kayak. Boats typically will drag on fewer than one-quarter of riffles, if at all, and portages are unnecessary or rare. Normal float lengths can be attempted without a problem.Good(none)962
TrendSteady (rising over 24 hours)Low - River is low but can still be floated. Some riffles are okay but most come with significant dragging and might need a portage. Float lengths should be reduced to accommodate low flow, dragging, and portages.Low(none)636
USGSExternal icon USGS Site (External icon Google Maps)Poor - River is too low to float comfortably. Most or all riffles will drag or must be portaged and some obstacles (such as slick shelf rock) cause undue problems. Avoid the river at this stage for casual paddling trips.Poor(none)338

Trending Data

Plot Image

Trips for Black River (Missouri), Poplar Bluff (07063000)

DateStartEndDistanceConditionDischargeHeightFishingDetails

A total of 0 rows are displayed.

Condition Descriptions

Fishing Conditions

Fish Species

Notes

Classic Trip List

The classic River Trips application is still available for use. It is updated with the new system using a data retrofit. It is no longer maintained. The original River Trips application is no longer updated (as of 1 Dec 2016) but can be checked for errors or for the condition of the data before it was converted to the new system.

Gauge Data Table

ObservationHeightDischargeMaximum
Discharge
Minimum
Discharge
Mean
Discharge
P05P10P20P25P50
(Median)
P75P80P90P95
2020-08-06 09:15 3.41 1510 3270 (1957) 273 (1954) 711 326 358 398 413 547 704 776 1380 1960
2020-08-06 08:15 3.40 1510 3270 (1957) 273 (1954) 711 326 358 398 413 547 704 776 1380 1960
2020-08-06 07:15 3.39 1500 3270 (1957) 273 (1954) 711 326 358 398 413 547 704 776 1380 1960
2020-08-06 06:15 3.39 1500 3270 (1957) 273 (1954) 711 326 358 398 413 547 704 776 1380 1960
2020-08-06 05:15 3.38 1500 3270 (1957) 273 (1954) 711 326 358 398 413 547 704 776 1380 1960
2020-08-06 04:15 3.37 1500 3270 (1957) 273 (1954) 711 326 358 398 413 547 704 776 1380 1960
2020-08-06 03:15 3.36 1490 3270 (1957) 273 (1954) 711 326 358 398 413 547 704 776 1380 1960
2020-08-06 02:15 3.35 1490 3270 (1957) 273 (1954) 711 326 358 398 413 547 704 776 1380 1960
2020-08-06 01:15 3.34 1490 3270 (1957) 273 (1954) 711 326 358 398 413 547 704 776 1380 1960
2020-08-06 00:15 3.33 1480 3270 (1957) 273 (1954) 711 326 358 398 413 547 704 776 1380 1960
2020-08-05 23:15 3.33 1480 3380 (1957) 263 (1954) 704 330 361 391 415 558 735 767 1370 1800
2020-08-05 22:15 3.31 1470 3380 (1957) 263 (1954) 704 330 361 391 415 558 735 767 1370 1800
2020-08-05 21:15 3.31 1470 3380 (1957) 263 (1954) 704 330 361 391 415 558 735 767 1370 1800
2020-08-05 20:15 3.28 1460 3380 (1957) 263 (1954) 704 330 361 391 415 558 735 767 1370 1800
2020-08-05 19:15 3.27 1460 3380 (1957) 263 (1954) 704 330 361 391 415 558 735 767 1370 1800
2020-08-05 18:15 3.25 1450 3380 (1957) 263 (1954) 704 330 361 391 415 558 735 767 1370 1800
2020-08-05 17:15 3.23 1450 3380 (1957) 263 (1954) 704 330 361 391 415 558 735 767 1370 1800
2020-08-05 16:15 3.23 1450 3380 (1957) 263 (1954) 704 330 361 391 415 558 735 767 1370 1800
2020-08-05 15:15 3.19 1430 3380 (1957) 263 (1954) 704 330 361 391 415 558 735 767 1370 1800
2020-08-05 14:15 3.16 1420 3380 (1957) 263 (1954) 704 330 361 391 415 558 735 767 1370 1800
2020-08-05 13:15 3.13 1410 3380 (1957) 263 (1954) 704 330 361 391 415 558 735 767 1370 1800
2020-08-05 12:15 3.11 1410 3380 (1957) 263 (1954) 704 330 361 391 415 558 735 767 1370 1800
2020-08-05 11:15 3.07 1390 3380 (1957) 263 (1954) 704 330 361 391 415 558 735 767 1370 1800
2020-08-05 10:15 3.04 1380 3380 (1957) 263 (1954) 704 330 361 391 415 558 735 767 1370 1800
2020-08-05 09:15 3.01 1370 3380 (1957) 263 (1954) 704 330 361 391 415 558 735 767 1370 1800
2020-08-05 08:15 2.97 1360 3380 (1957) 263 (1954) 704 330 361 391 415 558 735 767 1370 1800
2020-08-05 07:15 2.93 1340 3380 (1957) 263 (1954) 704 330 361 391 415 558 735 767 1370 1800
2020-08-05 06:15 2.91 1340 3380 (1957) 263 (1954) 704 330 361 391 415 558 735 767 1370 1800
2020-08-05 05:15 2.89 1330 3380 (1957) 263 (1954) 704 330 361 391 415 558 735 767 1370 1800
2020-08-05 04:15 2.86 1320 3380 (1957) 263 (1954) 704 330 361 391 415 558 735 767 1370 1800
2020-08-05 03:15 2.84 1310 3380 (1957) 263 (1954) 704 330 361 391 415 558 735 767 1370 1800
2020-08-05 02:15 2.81 1300 3380 (1957) 263 (1954) 704 330 361 391 415 558 735 767 1370 1800
2020-08-05 01:15 2.79 1300 3380 (1957) 263 (1954) 704 330 361 391 415 558 735 767 1370 1800
2020-08-05 00:15 2.77 1290 3380 (1957) 263 (1954) 704 330 361 391 415 558 735 767 1370 1800
2020-08-04 23:15 2.76 1290 3310 (1957) 270 (1954) 712 326 353 391 402 558 720 833 1360 1820
2020-08-04 22:15 2.75 1280 3310 (1957) 270 (1954) 712 326 353 391 402 558 720 833 1360 1820
2020-08-04 21:15 2.72 1270 3310 (1957) 270 (1954) 712 326 353 391 402 558 720 833 1360 1820
2020-08-04 20:15 2.69 1260 3310 (1957) 270 (1954) 712 326 353 391 402 558 720 833 1360 1820
2020-08-04 19:15 2.65 1250 3310 (1957) 270 (1954) 712 326 353 391 402 558 720 833 1360 1820
2020-08-04 18:15 2.61 1230 3310 (1957) 270 (1954) 712 326 353 391 402 558 720 833 1360 1820
2020-08-04 17:15 2.58 1220 3310 (1957) 270 (1954) 712 326 353 391 402 558 720 833 1360 1820
2020-08-04 16:15 2.53 1210 3310 (1957) 270 (1954) 712 326 353 391 402 558 720 833 1360 1820
2020-08-04 15:15 2.48 1190 3310 (1957) 270 (1954) 712 326 353 391 402 558 720 833 1360 1820
2020-08-04 14:15 2.42 1170 3310 (1957) 270 (1954) 712 326 353 391 402 558 720 833 1360 1820
2020-08-04 13:15 2.36 1150 3310 (1957) 270 (1954) 712 326 353 391 402 558 720 833 1360 1820
2020-08-04 12:15 2.29 1120 3310 (1957) 270 (1954) 712 326 353 391 402 558 720 833 1360 1820
2020-08-04 11:15 2.22 1100 3310 (1957) 270 (1954) 712 326 353 391 402 558 720 833 1360 1820
2020-08-04 10:15 2.14 1070 3310 (1957) 270 (1954) 712 326 353 391 402 558 720 833 1360 1820
2020-08-04 09:15 2.08 1050 3310 (1957) 270 (1954) 712 326 353 391 402 558 720 833 1360 1820
2020-08-04 08:15 1.99 1020 3310 (1957) 270 (1954) 712 326 353 391 402 558 720 833 1360 1820
2020-08-04 07:15 1.91 996 3310 (1957) 270 (1954) 712 326 353 391 402 558 720 833 1360 1820
2020-08-04 06:15 1.86 978 3310 (1957) 270 (1954) 712 326 353 391 402 558 720 833 1360 1820
2020-08-04 05:15 1.82 964 3310 (1957) 270 (1954) 712 326 353 391 402 558 720 833 1360 1820
2020-08-04 04:15 1.77 947 3310 (1957) 270 (1954) 712 326 353 391 402 558 720 833 1360 1820
2020-08-04 03:15 1.76 944 3310 (1957) 270 (1954) 712 326 353 391 402 558 720 833 1360 1820
2020-08-04 02:15 1.74 937 3310 (1957) 270 (1954) 712 326 353 391 402 558 720 833 1360 1820
2020-08-04 01:15 1.74 937 3310 (1957) 270 (1954) 712 326 353 391 402 558 720 833 1360 1820
2020-08-04 00:15 1.74 937 3310 (1957) 270 (1954) 712 326 353 391 402 558 720 833 1360 1820
2020-08-03 23:15 1.75 940 3170 (1951) 276 (1954) 730 329 366 389 417 580 734 889 1540 1990
2020-08-03 22:15 1.75 940 3170 (1951) 276 (1954) 730 329 366 389 417 580 734 889 1540 1990
2020-08-03 21:15 1.76 944 3170 (1951) 276 (1954) 730 329 366 389 417 580 734 889 1540 1990
2020-08-03 20:15 1.76 944 3170 (1951) 276 (1954) 730 329 366 389 417 580 734 889 1540 1990
2020-08-03 19:15 1.75 940 3170 (1951) 276 (1954) 730 329 366 389 417 580 734 889 1540 1990
2020-08-03 18:15 1.75 940 3170 (1951) 276 (1954) 730 329 366 389 417 580 734 889 1540 1990
2020-08-03 17:15 1.77 947 3170 (1951) 276 (1954) 730 329 366 389 417 580 734 889 1540 1990
2020-08-03 16:15 1.78 951 3170 (1951) 276 (1954) 730 329 366 389 417 580 734 889 1540 1990
2020-08-03 15:15 1.77 947 3170 (1951) 276 (1954) 730 329 366 389 417 580 734 889 1540 1990
2020-08-03 14:15 1.77 947 3170 (1951) 276 (1954) 730 329 366 389 417 580 734 889 1540 1990
2020-08-03 13:15 1.79 954 3170 (1951) 276 (1954) 730 329 366 389 417 580 734 889 1540 1990
2020-08-03 12:15 1.79 954 3170 (1951) 276 (1954) 730 329 366 389 417 580 734 889 1540 1990
2020-08-03 11:15 1.79 954 3170 (1951) 276 (1954) 730 329 366 389 417 580 734 889 1540 1990
2020-08-03 10:15 1.80 958 3170 (1951) 276 (1954) 730 329 366 389 417 580 734 889 1540 1990
2020-08-03 09:15 1.80 958 3170 (1951) 276 (1954) 730 329 366 389 417 580 734 889 1540 1990
2020-08-03 08:15 1.80 958 3170 (1951) 276 (1954) 730 329 366 389 417 580 734 889 1540 1990
2020-08-03 07:15 1.81 961 3170 (1951) 276 (1954) 730 329 366 389 417 580 734 889 1540 1990
2020-08-03 06:15 1.81 961 3170 (1951) 276 (1954) 730 329 366 389 417 580 734 889 1540 1990
2020-08-03 05:15 1.82 964 3170 (1951) 276 (1954) 730 329 366 389 417 580 734 889 1540 1990
2020-08-03 04:15 1.81 961 3170 (1951) 276 (1954) 730 329 366 389 417 580 734 889 1540 1990
2020-08-03 03:15 1.83 968 3170 (1951) 276 (1954) 730 329 366 389 417 580 734 889 1540 1990
2020-08-03 02:15 1.84 971 3170 (1951) 276 (1954) 730 329 366 389 417 580 734 889 1540 1990
2020-08-03 01:15 1.84 971 3170 (1951) 276 (1954) 730 329 366 389 417 580 734 889 1540 1990
2020-08-03 00:15 1.85 975 3170 (1951) 276 (1954) 730 329 366 389 417 580 734 889 1540 1990

A total of 82 rows are displayed for years 1949 through 2019.